Aviation Digital Data Service (ADDS)

Output produced by METARs form (0505 UTC 24 January 2019)
found at http://www.aviationweather.gov/metar/data/
 
METAR text: MMGL 240443Z 22004KT 10SM SKC 15/05 A3016
Conditions at: MMGL (GUADALAJARA , MX) observed 0443 UTC 24 January 2019
Temperature: 15.0°C (59°F)
Dewpoint: 5.0°C (41°F) [RH = 51%]
Pressure (altimeter): 30.16 inches Hg (1021.4 mb)
Winds: from the SW (220 degrees) at 5 MPH (4 knots; 2.1 m/s)
Visibility: 10 or more miles (16+ km)
Ceiling: at least 12,000 feet AGL
Clouds: clear skies
Weather: no significant weather observed at this time

METAR text: MMGL 240342Z 00000KT 10SM SKC 15/05 A3015
Conditions at: MMGL (GUADALAJARA , MX) observed 0342 UTC 24 January 2019
Temperature: 15.0°C (59°F)
Dewpoint: 5.0°C (41°F) [RH = 51%]
Pressure (altimeter): 30.15 inches Hg (1021.1 mb)
Winds: calm
Visibility: 10 or more miles (16+ km)
Ceiling: at least 12,000 feet AGL
Clouds: clear skies
Weather: no significant weather observed at this time

METAR text: MMGL 240244Z 25005KT 10SM SKC 16/03 A3013 RMK SLP131 52013 960
Conditions at: MMGL (GUADALAJARA , MX) observed 0244 UTC 24 January 2019
Temperature: 16.0°C (61°F)
Dewpoint: 3.0°C (37°F) [RH = 42%]
Pressure (altimeter): 30.13 inches Hg (1020.4 mb)
[Sea-level pressure: 1013.1 mb]
Winds: from the WSW (250 degrees) at 6 MPH (5 knots; 2.6 m/s)
Visibility: 10 or more miles (16+ km)
Ceiling: at least 12,000 feet AGL
Clouds: clear skies
Weather: no significant weather observed at this time

METAR text: MMGL 240141Z 18004KT 12SM SKC 17/03 A3011
Conditions at: MMGL (GUADALAJARA , MX) observed 0141 UTC 24 January 2019
Temperature: 17.0°C (63°F)
Dewpoint: 3.0°C (37°F) [RH = 39%]
Pressure (altimeter): 30.11 inches Hg (1019.7 mb)
Winds: from the S (180 degrees) at 5 MPH (4 knots; 2.1 m/s)
Visibility: 12 miles (19 km)
Ceiling: at least 12,000 feet AGL
Clouds: clear skies
Weather: no significant weather observed at this time

METAR text: MMGL 232350Z 24008KT 12SM SKC 24/01 A3008 RMK SLP086 57011 957
Conditions at: MMGL (GUADALAJARA , MX) observed 2350 UTC 23 January 2019
Temperature: 24.0°C (75°F)
Dewpoint: 1.0°C (34°F) [RH = 22%]
Pressure (altimeter): 30.08 inches Hg (1018.7 mb)
[Sea-level pressure: 1008.6 mb]
Winds: from the WSW (240 degrees) at 9 MPH (8 knots; 4.1 m/s)
Visibility: 12 miles (19 km)
Ceiling: at least 12,000 feet AGL
Clouds: clear skies
Weather: no significant weather observed at this time

METAR text: MMGL 232241Z 24005KT 10SM SKC 26/00 A3008
Conditions at: MMGL (GUADALAJARA , MX) observed 2241 UTC 23 January 2019
Temperature: 26.0°C (79°F)
Dewpoint: 0.0°C (32°F) [RH = 18%]
Pressure (altimeter): 30.08 inches Hg (1018.7 mb)
Winds: from the WSW (240 degrees) at 6 MPH (5 knots; 2.6 m/s)
Visibility: 10 or more miles (16+ km)
Ceiling: at least 12,000 feet AGL
Clouds: clear skies
Weather: no significant weather observed at this time

METAR text: MMGL 232146Z 25007KT 10SM FEW300 25/00 A3009 RMK 8/001
Conditions at: MMGL (GUADALAJARA , MX) observed 2146 UTC 23 January 2019
Temperature: 25.0°C (77°F)
Dewpoint: 0.0°C (32°F) [RH = 19%]
Pressure (altimeter): 30.09 inches Hg (1019.0 mb)
Winds: from the WSW (250 degrees) at 8 MPH (7 knots; 3.6 m/s)
Visibility: 10 or more miles (16+ km)
Ceiling: at least 12,000 feet AGL
Clouds: few clouds at 30000 feet AGL
Weather: no significant weather observed at this time

METAR text: MMGL 232052Z 26012KT 10SM FEW300 25/00 A3011 RMK SLP098 57032 900 8/001
Conditions at: MMGL (GUADALAJARA , MX) observed 2052 UTC 23 January 2019
Temperature: 25.0°C (77°F)
Dewpoint: 0.0°C (32°F) [RH = 19%]
Pressure (altimeter): 30.11 inches Hg (1019.7 mb)
[Sea-level pressure: 1009.8 mb]
Winds: from the W (260 degrees) at 14 MPH (12 knots; 6.2 m/s)
Visibility: 10 or more miles (16+ km)
Ceiling: at least 12,000 feet AGL
Clouds: few clouds at 30000 feet AGL
Weather: no significant weather observed at this time

METAR text: MMGL 231944Z 23006KT 12SM SKC 24/01 A3015 RMK CU CI
Conditions at: MMGL (GUADALAJARA , MX) observed 1944 UTC 23 January 2019
Temperature: 24.0°C (75°F)
Dewpoint: 1.0°C (34°F) [RH = 22%]
Pressure (altimeter): 30.15 inches Hg (1021.1 mb)
Winds: from the SW (230 degrees) at 7 MPH (6 knots; 3.1 m/s)
Visibility: 12 miles (19 km)
Ceiling: at least 12,000 feet AGL
Clouds: clear skies
Weather: no significant weather observed at this time

METAR text: MMGL 231846Z 20004KT 12SM SCT300 24/02 A3019 RMK 8/001 CU
Conditions at: MMGL (GUADALAJARA , MX) observed 1846 UTC 23 January 2019
Temperature: 24.0°C (75°F)
Dewpoint: 2.0°C (36°F) [RH = 24%]
Pressure (altimeter): 30.19 inches Hg (1022.4 mb)
Winds: from the SSW (200 degrees) at 5 MPH (4 knots; 2.1 m/s)
Visibility: 12 miles (19 km)
Ceiling: at least 12,000 feet AGL
Clouds: scattered clouds at 30000 feet AGL
Weather: no significant weather observed at this time

METAR text: MMGL 231646Z 00000KT 4SM SKC 19/09 A3025 RMK HZY AC
Conditions at: MMGL (GUADALAJARA , MX) observed 1646 UTC 23 January 2019
Temperature: 19.0°C (66°F)
Dewpoint: 9.0°C (48°F) [RH = 52%]
Pressure (altimeter): 30.25 inches Hg (1024.5 mb)
Winds: calm
Visibility: 4 miles ( 6 km)
Ceiling: at least 12,000 feet AGL
Clouds: clear skies
Weather: no significant weather observed at this time

METAR text: MMGL 231547Z 00000KT 3SM HZ SKC 14/13 A3025 RMK AC W NW
Conditions at: MMGL (GUADALAJARA , MX) observed 1547 UTC 23 January 2019
Temperature: 14.0°C (57°F)
Dewpoint: 13.0°C (55°F) [RH = 94%]
Pressure (altimeter): 30.25 inches Hg (1024.5 mb)
Winds: calm
Visibility: 3 miles ( 5 km)
Ceiling: at least 12,000 feet AGL
Clouds: clear skies
Weather: HZ  (haze)

METAR text: MMGL 231519Z 12003KT 2SM BR HZ SKC 12/11 A3023
Conditions at: MMGL (GUADALAJARA , MX) observed 1519 UTC 23 January 2019
Temperature: 12.0°C (54°F)
Dewpoint: 11.0°C (52°F) [RH = 94%]
Pressure (altimeter): 30.23 inches Hg (1023.8 mb)
Winds: from the ESE (120 degrees) at 3 MPH (3 knots; 1.5 m/s)
Visibility: 2.00 miles (3.22 km)
Ceiling: at least 12,000 feet AGL
Clouds: clear skies
Weather: BR HZ  (mist, haze)

METAR text: MMGL 231513Z 14004KT 1/2SM FG SKC 12/11 A3023
Conditions at: MMGL (GUADALAJARA , MX) observed 1513 UTC 23 January 2019
Temperature: 12.0°C (54°F)
Dewpoint: 11.0°C (52°F) [RH = 94%]
Pressure (altimeter): 30.23 inches Hg (1023.8 mb)
Winds: from the SE (140 degrees) at 5 MPH (4 knots; 2.1 m/s)
Visibility: 0.50 miles (0.80 km)
Ceiling: at least 12,000 feet AGL
Clouds: clear skies
Weather: FG  (fog)

METAR text: MMGL 231452Z 00000KT 0SM FG VV001 11/10 A3022 RMK SLP155 51006 951 8//// VSBY VRB
Conditions at: MMGL (GUADALAJARA , MX) observed 1452 UTC 23 January 2019
Temperature: 11.0°C (52°F)
Dewpoint: 10.0°C (50°F) [RH = 94%]
Pressure (altimeter): 30.22 inches Hg (1023.5 mb)
[Sea-level pressure: 1015.5 mb]
Winds: calm
Visibility: 0.00 miles (0.00 km)
Ceiling: indefinite ceiling with vertical visibility of 100 feet AGL
Clouds: obscured sky
Weather: FG  (fog)

METAR text: MMGL 231354Z 00000KT 0SM FG VV000 10/09 A3021 RMK 8////
Conditions at: MMGL (GUADALAJARA , MX) observed 1354 UTC 23 January 2019
Temperature: 10.0°C (50°F)
Dewpoint: 9.0°C (48°F) [RH = 93%]
Pressure (altimeter): 30.21 inches Hg (1023.1 mb)
Winds: calm
Visibility: 0.00 miles (0.00 km)
Ceiling: indefinite ceiling with vertical visibility of 0 feet AGL
Clouds: obscured sky
Weather: FG  (fog)

METAR text: MMGL 231248Z 00000KT 0SM FG VV000 11/10 A3020 RMK 8////
Conditions at: MMGL (GUADALAJARA , MX) observed 1248 UTC 23 January 2019
Temperature: 11.0°C (52°F)
Dewpoint: 10.0°C (50°F) [RH = 94%]
Pressure (altimeter): 30.20 inches Hg (1022.8 mb)
Winds: calm
Visibility: 0.00 miles (0.00 km)
Ceiling: indefinite ceiling with vertical visibility of 0 feet AGL
Clouds: obscured sky
Weather: FG  (fog)

METAR text: MMGL 231227Z 18004KT 0SM FG VV001 11/10 A3019 RMK 8//// FG INCRG
Conditions at: MMGL (GUADALAJARA , MX) observed 1227 UTC 23 January 2019
Temperature: 11.0°C (52°F)
Dewpoint: 10.0°C (50°F) [RH = 94%]
Pressure (altimeter): 30.19 inches Hg (1022.4 mb)
Winds: from the S (180 degrees) at 5 MPH (4 knots; 2.1 m/s)
Visibility: 0.00 miles (0.00 km)
Ceiling: indefinite ceiling with vertical visibility of 100 feet AGL
Clouds: obscured sky
Weather: FG  (fog)

METAR text: MMGL 231152Z 00000KT 1/2SM FG SKC 11/10 A3018 RMK SLP127 52002 907
Conditions at: MMGL (GUADALAJARA , MX) observed 1152 UTC 23 January 2019
Temperature: 11.0°C (52°F)
Dewpoint: 10.0°C (50°F) [RH = 94%]
Pressure (altimeter): 30.18 inches Hg (1022.1 mb)
[Sea-level pressure: 1012.7 mb]
Winds: calm
Visibility: 0.50 miles (0.80 km)
Ceiling: at least 12,000 feet AGL
Clouds: clear skies
Weather: FG  (fog)

METAR text: MMGL 231040Z 13004KT 10SM SKC 10/09 A3016
Conditions at: MMGL (GUADALAJARA , MX) observed 1040 UTC 23 January 2019
Temperature: 10.0°C (50°F)
Dewpoint: 9.0°C (48°F) [RH = 93%]
Pressure (altimeter): 30.16 inches Hg (1021.4 mb)
Winds: from the SE (130 degrees) at 5 MPH (4 knots; 2.1 m/s)
Visibility: 10 or more miles (16+ km)
Ceiling: at least 12,000 feet AGL
Clouds: clear skies
Weather: no significant weather observed at this time

METAR text: MMGL 230941Z 00000KT 10SM SKC 10/08 A3018
Conditions at: MMGL (GUADALAJARA , MX) observed 0941 UTC 23 January 2019
Temperature: 10.0°C (50°F)
Dewpoint: 8.0°C (46°F) [RH = 87%]
Pressure (altimeter): 30.18 inches Hg (1022.1 mb)
Winds: calm
Visibility: 10 or more miles (16+ km)
Ceiling: at least 12,000 feet AGL
Clouds: clear skies
Weather: no significant weather observed at this time

METAR text: MMGL 230842Z 20004KT 10SM SKC 11/09 A3018 RMK SLP122 57004 951
Conditions at: MMGL (GUADALAJARA , MX) observed 0842 UTC 23 January 2019
Temperature: 11.0°C (52°F)
Dewpoint: 9.0°C (48°F) [RH = 87%]
Pressure (altimeter): 30.18 inches Hg (1022.1 mb)
[Sea-level pressure: 1012.2 mb]
Winds: from the SSW (200 degrees) at 5 MPH (4 knots; 2.1 m/s)
Visibility: 10 or more miles (16+ km)
Ceiling: at least 12,000 feet AGL
Clouds: clear skies
Weather: no significant weather observed at this time

METAR text: MMGL 230741Z 00000KT 10SM SKC 12/10 A3019
Conditions at: MMGL (GUADALAJARA , MX) observed 0741 UTC 23 January 2019
Temperature: 12.0°C (54°F)
Dewpoint: 10.0°C (50°F) [RH = 88%]
Pressure (altimeter): 30.19 inches Hg (1022.4 mb)
Winds: calm
Visibility: 10 or more miles (16+ km)
Ceiling: at least 12,000 feet AGL
Clouds: clear skies
Weather: no significant weather observed at this time

METAR text: MMGL 230640Z 00000KT 10SM SKC 13/10 A3019
Conditions at: MMGL (GUADALAJARA , MX) observed 0640 UTC 23 January 2019
Temperature: 13.0°C (55°F)
Dewpoint: 10.0°C (50°F) [RH = 82%]
Pressure (altimeter): 30.19 inches Hg (1022.4 mb)
Winds: calm
Visibility: 10 or more miles (16+ km)
Ceiling: at least 12,000 feet AGL
Clouds: clear skies
Weather: no significant weather observed at this time

METAR text: MMGL 230544Z 25004KT 10SM SKC 14/09 A3020 RMK SLP121 52013 903
Conditions at: MMGL (GUADALAJARA , MX) observed 0544 UTC 23 January 2019
Temperature: 14.0°C (57°F)
Dewpoint: 9.0°C (48°F) [RH = 72%]
Pressure (altimeter): 30.20 inches Hg (1022.8 mb)
[Sea-level pressure: 1012.1 mb]
Winds: from the WSW (250 degrees) at 5 MPH (4 knots; 2.1 m/s)
Visibility: 10 or more miles (16+ km)
Ceiling: at least 12,000 feet AGL
Clouds: clear skies
Weather: no significant weather observed at this time

METAR text: MMGL 230440Z 30008KT 10SM SKC 16/10 A3020
Conditions at: MMGL (GUADALAJARA , MX) observed 0440 UTC 23 January 2019
Temperature: 16.0°C (61°F)
Dewpoint: 10.0°C (50°F) [RH = 68%]
Pressure (altimeter): 30.20 inches Hg (1022.8 mb)
Winds: from the WNW (300 degrees) at 9 MPH (8 knots; 4.1 m/s)
Visibility: 10 or more miles (16+ km)
Ceiling: at least 12,000 feet AGL
Clouds: clear skies
Weather: no significant weather observed at this time

METAR text: MMGL 230340Z 28004KT 10SM SKC 18/07 A3018
Conditions at: MMGL (GUADALAJARA , MX) observed 0340 UTC 23 January 2019
Temperature: 18.0°C (64°F)
Dewpoint: 7.0°C (45°F) [RH = 49%]
Pressure (altimeter): 30.18 inches Hg (1022.1 mb)
Winds: from the W (280 degrees) at 5 MPH (4 knots; 2.1 m/s)
Visibility: 10 or more miles (16+ km)
Ceiling: at least 12,000 feet AGL
Clouds: clear skies
Weather: no significant weather observed at this time

METAR text: MMGL 230240Z 25004KT 10SM SKC 17/03 A3015 RMK SLP131 52015 956
Conditions at: MMGL (GUADALAJARA , MX) observed 0240 UTC 23 January 2019
Temperature: 17.0°C (63°F)
Dewpoint: 3.0°C (37°F) [RH = 39%]
Pressure (altimeter): 30.15 inches Hg (1021.1 mb)
[Sea-level pressure: 1013.1 mb]
Winds: from the WSW (250 degrees) at 5 MPH (4 knots; 2.1 m/s)
Visibility: 10 or more miles (16+ km)
Ceiling: at least 12,000 feet AGL
Clouds: clear skies
Weather: no significant weather observed at this time

METAR text: MMGL 230142Z 22003KT 10SM SKC 19/03 A3013
Conditions at: MMGL (GUADALAJARA , MX) observed 0142 UTC 23 January 2019
Temperature: 19.0°C (66°F)
Dewpoint: 3.0°C (37°F) [RH = 34%]
Pressure (altimeter): 30.13 inches Hg (1020.4 mb)
Winds: from the SW (220 degrees) at 3 MPH (3 knots; 1.5 m/s)
Visibility: 10 or more miles (16+ km)
Ceiling: at least 12,000 feet AGL
Clouds: clear skies
Weather: no significant weather observed at this time

METAR text: MMGL 230040Z 00000KT 10SM SCT300 21/01 A3011 RMK 8/001 SC-AS
Conditions at: MMGL (GUADALAJARA , MX) observed 0040 UTC 23 January 2019
Temperature: 21.0°C (70°F)
Dewpoint: 1.0°C (34°F) [RH = 26%]
Pressure (altimeter): 30.11 inches Hg (1019.7 mb)
Winds: calm
Visibility: 10 or more miles (16+ km)
Ceiling: at least 12,000 feet AGL
Clouds: scattered clouds at 30000 feet AGL
Weather: no significant weather observed at this time

METAR text: MMGL 222341Z 00000KT 10SM FEW030 SCT300 24/02 A3010 RMK SLP105 57005 962 8/101
Conditions at: MMGL (GUADALAJARA , MX) observed 2341 UTC 22 January 2019
Temperature: 24.0°C (75°F)
Dewpoint: 2.0°C (36°F) [RH = 24%]
Pressure (altimeter): 30.10 inches Hg (1019.4 mb)
[Sea-level pressure: 1010.5 mb]
Winds: calm
Visibility: 10 or more miles (16+ km)
Ceiling: at least 12,000 feet AGL
Clouds: few clouds at 3000 feet AGL
scattered clouds at 30000 feet AGL
Weather: no significant weather observed at this time

METAR text: MMGL 222243Z 21006KT 10SM FEW030 25/01 A3009 RMK 8/100 CI W
Conditions at: MMGL (GUADALAJARA , MX) observed 2243 UTC 22 January 2019
Temperature: 25.0°C (77°F)
Dewpoint: 1.0°C (34°F) [RH = 21%]
Pressure (altimeter): 30.09 inches Hg (1019.0 mb)
Winds: from the SSW (210 degrees) at 7 MPH (6 knots; 3.1 m/s)
Visibility: 10 or more miles (16+ km)
Ceiling: at least 12,000 feet AGL
Clouds: few clouds at 3000 feet AGL
Weather: no significant weather observed at this time

METAR text: MMGL 222143Z 22012G29KT 8SM SKC 26/02 A3011 RMK CU-CI
Conditions at: MMGL (GUADALAJARA , MX) observed 2143 UTC 22 January 2019
Temperature: 26.0°C (79°F)
Dewpoint: 2.0°C (36°F) [RH = 21%]
Pressure (altimeter): 30.11 inches Hg (1019.7 mb)
Winds: from the SW (220 degrees) at 14 MPH (12 knots; 6.2 m/s)
gusting to 33 MPH (29 knots; 14.9 m/s)
Visibility: 8 miles (13 km)
Ceiling: at least 12,000 feet AGL
Clouds: clear skies
Weather: no significant weather observed at this time

METAR text: MMGL 222048Z 30016KT 8SM SKC 25/02 A3012 RMK SLP102 57024 974 CU
Conditions at: MMGL (GUADALAJARA , MX) observed 2048 UTC 22 January 2019
Temperature: 25.0°C (77°F)
Dewpoint: 2.0°C (36°F) [RH = 22%]
Pressure (altimeter): 30.12 inches Hg (1020.1 mb)
[Sea-level pressure: 1010.2 mb]
Winds: from the WNW (300 degrees) at 18 MPH (16 knots; 8.2 m/s)
Visibility: 8 miles (13 km)
Ceiling: at least 12,000 feet AGL
Clouds: clear skies
Weather: no significant weather observed at this time

METAR text: MMGL 221943Z 00000KT 8SM FEW030 25/04 A3015 RMK 8/100
Conditions at: MMGL (GUADALAJARA , MX) observed 1943 UTC 22 January 2019
Temperature: 25.0°C (77°F)
Dewpoint: 4.0°C (39°F) [RH = 26%]
Pressure (altimeter): 30.15 inches Hg (1021.1 mb)
Winds: calm
Visibility: 8 miles (13 km)
Ceiling: at least 12,000 feet AGL
Clouds: few clouds at 3000 feet AGL
Weather: no significant weather observed at this time

METAR text: MMGL 221843Z 32012KT 7SM FEW030 24/05 A3018 RMK 8/100 HZY
Conditions at: MMGL (GUADALAJARA , MX) observed 1843 UTC 22 January 2019
Temperature: 24.0°C (75°F)
Dewpoint: 5.0°C (41°F) [RH = 29%]
Pressure (altimeter): 30.18 inches Hg (1022.1 mb)
Winds: from the NW (320 degrees) at 14 MPH (12 knots; 6.2 m/s)
Visibility: 7 miles (11 km)
Ceiling: at least 12,000 feet AGL
Clouds: few clouds at 3000 feet AGL
Weather: no significant weather observed at this time

METAR text: MMGL 221749Z 21006KT 6SM SKC 23/05 A3021 RMK SLP128 57004 974 HZY
Conditions at: MMGL (GUADALAJARA , MX) observed 1749 UTC 22 January 2019
Temperature: 23.0°C (73°F)
Dewpoint: 5.0°C (41°F) [RH = 31%]
Pressure (altimeter): 30.21 inches Hg (1023.1 mb)
[Sea-level pressure: 1012.8 mb]
Winds: from the SSW (210 degrees) at 7 MPH (6 knots; 3.1 m/s)
Visibility: 6 miles (10 km)
Ceiling: at least 12,000 feet AGL
Clouds: clear skies
Weather: no significant weather observed at this time

Forecast for: MMGL (GUADALAJARA , MX)
Text: TAF MMGL 240438Z 2406/2512 00000KT P6SM SKC TX26/2422Z TN11/2412Z
Forecast period: 0600 to 1800 UTC 24 January 2019
Forecast type: FROM: standard forecast or significant change
Winds: calm
Visibility: 6 or more miles 10+ km)
Clouds: clear skies
Weather: no significant weather forecast for this period
Text: TEMPO 2412/2415 3SM BR SCT015
Forecast period: 1200 to 1500 UTC 24 January 2019
Forecast type: TEMPORARY: The following changes expected for less than half the time period
Visibility: 3 miles (5 km)
Ceiling: at least 12,000 feet AGL
Clouds: scattered clouds at 1500 feet AGL
Weather: BR  (mist)
Text: FM241800 23008KT P6SM SCT020 SCT240
Forecast period: 1800 UTC 24 January 2019 to 0500 UTC 25 January 2019
Forecast type: FROM: standard forecast or significant change
Winds: from the SW (230 degrees) at 9 MPH (8 knots; 4.1 m/s)
Visibility: 6 or more miles 10+ km)
Ceiling: at least 12,000 feet AGL
Clouds: scattered clouds at 2000 feet AGL
scattered clouds at 24000 feet AGL
Weather: no significant weather forecast for this period
Text: BECMG 2505/2507 26005KT SKC
Forecast period: 0500 to 1200 UTC 25 January 2019
Forecast type: BECOMING: Conditions expected to become as follows by 0700 UTC 25 January 2019
Winds: from the W (260 degrees) at 6 MPH (5 knots; 2.6 m/s)
Visibility: 6 or more miles 10+ km)
Clouds: clear skies
Weather: no significant weather forecast for this period